Time;durP1;ratioP1;P1;durP2;ratioP2;P2;SDS_P1;SDS_P2;PMS_P1;PMS_P2;Temp;Humidity;BMP_temperature;BMP_pressure;BME280_temperature;BME280_humidity;BME280_pressure;Samples;Min_cycle;Max_cycle;Signal;HPM_P1;HPM_P2
2023/07/07 00:00:27;;;;;;;4.03;2.63;;;16.70;98.00;;;;;;4992734;28;20488;-69
2023/07/07 00:02:54;;;;;;;5.07;2.80;;;16.60;98.00;;;;;;4992942;28;20483;-68
2023/07/07 00:05:21;;;;;;;5.17;2.83;;;16.50;98.00;;;;;;4991631;28;20473;-68
2023/07/07 00:07:49;;;;;;;6.97;2.70;;;16.40;98.00;;;;;;4992950;28;20931;-68
2023/07/07 00:10:16;;;;;;;5.93;2.70;;;16.50;98.00;;;;;;4992614;28;20888;-68
2023/07/07 00:12:43;;;;;;;5.00;2.60;;;16.60;98.00;;;;;;4992803;28;20892;-68
2023/07/07 00:15:13;;;;;;;5.00;3.10;;;16.70;98.00;;;;;;4991489;28;20459;-68
2023/07/07 00:17:42;;;;;;;4.93;3.07;;;16.70;98.00;;;;;;4990541;28;20464;-68
2023/07/07 00:20:11;;;;;;;4.80;3.03;;;16.60;98.00;;;;;;4991346;28;21044;-69
2023/07/07 00:22:38;;;;;;;4.43;2.80;;;16.60;98.00;;;;;;4992635;28;20530;-68
2023/07/07 00:25:06;;;;;;;4.13;2.90;;;16.80;98.00;;;;;;4992436;28;20782;-69
2023/07/07 00:27:34;;;;;;;5.80;3.27;;;16.70;98.00;;;;;;4992573;28;21036;-69
2023/07/07 00:30:02;;;;;;;5.03;2.90;;;16.70;98.00;;;;;;4990927;28;20468;-68
2023/07/07 00:32:32;;;;;;;5.30;3.13;;;16.50;98.00;;;;;;4992658;28;20445;-68
2023/07/07 00:34:59;;;;;;;4.63;2.83;;;16.40;98.00;;;;;;4992214;28;20464;-68
2023/07/07 00:37:26;;;;;;;5.63;3.17;;;16.40;98.00;;;;;;4992689;28;20463;-68
2023/07/07 00:39:54;;;;;;;4.10;2.97;;;16.40;98.00;;;;;;4992277;28;20970;-68
2023/07/07 00:42:21;;;;;;;5.43;2.80;;;16.20;98.00;;;;;;4992294;28;20547;-68
2023/07/07 00:45:16;;;;;;;4.10;2.80;;;16.20;98.00;;;;;;4992306;28;20811;-69
2023/07/07 00:47:50;;;;;;;4.10;2.67;;;16.30;98.00;;;;;;4992400;28;20535;-69
2023/07/07 00:50:21;;;;;;;6.40;3.23;;;16.20;98.00;;;;;;4992357;28;20453;-68
2023/07/07 00:52:48;;;;;;;4.73;2.87;;;16.10;98.00;;;;;;4991229;28;20484;-68
2023/07/07 00:55:20;;;;;;;6.47;3.23;;;16.10;98.00;;;;;;4992335;28;20845;-68
2023/07/07 00:57:48;;;;;;;3.57;2.77;;;16.20;98.00;;;;;;4991151;28;20456;-68
2023/07/07 01:00:16;;;;;;;6.07;2.97;;;16.00;98.00;;;;;;4992200;28;20488;-67
2023/07/07 01:02:53;;;;;;;3.73;2.50;;;16.00;98.00;;;;;;4992377;28;20946;-68
2023/07/07 01:05:22;;;;;;;4.30;2.80;;;16.10;98.00;;;;;;4992306;28;20877;-68
2023/07/07 01:07:52;;;;;;;5.03;3.03;;;16.00;98.00;;;;;;4992445;28;20467;-68
2023/07/07 01:10:21;;;;;;;6.47;2.97;;;15.90;98.00;;;;;;4991948;28;21136;-68
2023/07/07 01:12:49;;;;;;;5.10;2.73;;;15.80;98.00;;;;;;4992046;28;20463;-68
2023/07/07 01:15:17;;;;;;;5.00;2.73;;;16.00;98.00;;;;;;4992025;28;20464;-68
2023/07/07 01:17:59;;;;;;;4.60;2.80;;;16.20;98.00;;;;;;4991903;28;20457;-68
2023/07/07 01:20:32;;;;;;;5.97;3.13;;;16.00;98.00;;;;;;4991875;28;20562;-68
2023/07/07 01:23:17;;;;;;;3.50;2.50;;;15.80;98.00;;;;;;4992045;28;20464;-68
2023/07/07 01:26:07;;;;;;;7.40;2.80;;;15.70;98.00;;;;;;4990845;28;20472;-68
2023/07/07 01:28:53;;;;;;;4.80;2.93;;;15.80;98.00;;;;;;4970682;28;20468;-68
2023/07/07 01:31:28;;;;;;;5.13;2.97;;;15.60;98.00;;;;;;4995280;28;20467;-68
2023/07/07 01:33:55;;;;;;;4.20;2.60;;;15.50;98.00;;;;;;4995477;28;20474;-69
2023/07/07 01:36:23;;;;;;;4.83;3.30;;;15.50;98.00;;;;;;4995313;28;20448;-68
2023/07/07 01:38:50;;;;;;;4.90;2.90;;;15.50;98.00;;;;;;4994150;28;20803;-68
2023/07/07 01:41:26;;;;;;;4.97;2.87;;;15.30;98.00;;;;;;4995088;28;20488;-68
2023/07/07 01:44:02;;;;;;;5.33;3.00;;;15.40;98.00;;;;;;4995288;28;20938;-68
2023/07/07 01:46:32;;;;;;;5.43;3.10;;;15.30;98.00;;;;;;4995281;28;20460;-68
2023/07/07 01:49:06;;;;;;;5.33;2.83;;;15.10;98.00;;;;;;4995279;28;20473;-68
2023/07/07 01:51:41;;;;;;;4.80;2.90;;;15.00;98.00;;;;;;4995249;28;20475;-68
2023/07/07 01:54:10;;;;;;;4.43;2.73;;;14.90;98.00;;;;;;4994976;28;20471;-68
2023/07/07 01:56:39;;;;;;;4.63;3.00;;;14.80;98.00;;;;;;4995317;28;20463;-68
2023/07/07 01:59:06;;;;;;;4.70;3.07;;;14.70;98.00;;;;;;4994925;28;20507;-68
2023/07/07 02:01:35;;;;;;;5.07;2.70;;;14.80;98.00;;;;;;4995221;28;20480;-68
2023/07/07 02:04:03;;;;;;;3.40;2.57;;;15.00;98.00;;;;;;4994992;28;20456;-67
2023/07/07 02:06:30;;;;;;;3.60;2.83;;;15.00;98.00;;;;;;4995079;28;20460;-68
2023/07/07 02:08:57;;;;;;;4.57;3.10;;;15.10;98.00;;;;;;4994752;28;20456;-68
2023/07/07 02:11:24;;;;;;;7.00;3.73;;;15.00;98.00;;;;;;4994681;28;20468;-68
2023/07/07 02:13:51;;;;;;;8.43;2.80;;;14.80;98.00;;;;;;4994695;28;20461;-68
2023/07/07 02:16:18;;;;;;;6.80;3.00;;;14.80;98.00;;;;;;4994643;28;20939;-68
2023/07/07 02:18:48;;;;;;;5.50;2.70;;;14.90;98.00;;;;;;4993385;28;20457;-68
2023/07/07 02:21:16;;;;;;;6.40;3.17;;;14.80;98.00;;;;;;4994447;28;20488;-68
2023/07/07 02:23:44;;;;;;;4.33;3.00;;;14.90;98.00;;;;;;4993395;28;20464;-68
2023/07/07 02:26:11;;;;;;;6.60;3.57;;;14.90;98.00;;;;;;4994317;28;20460;-68
2023/07/07 02:28:38;;;;;;;5.83;2.90;;;15.00;98.00;;;;;;4994532;28;20807;-68
2023/07/07 02:31:06;;;;;;;8.33;3.07;;;15.00;98.00;;;;;;4994117;28;20502;-67
2023/07/07 02:33:33;;;;;;;5.77;2.90;;;15.00;98.00;;;;;;4993239;28;20460;-67
2023/07/07 02:36:04;;;;;;;4.40;2.77;;;14.70;98.00;;;;;;4994272;28;20851;-68
2023/07/07 02:38:31;;;;;;;5.80;2.90;;;14.50;98.00;;;;;;4994468;28;21012;-67
2023/07/07 02:40:59;;;;;;;3.93;2.47;;;14.80;98.00;;;;;;4993360;28;20493;-68
2023/07/07 02:43:26;;;;;;;4.83;3.10;;;14.80;98.00;;;;;;4994143;28;20456;-68
2023/07/07 02:45:53;;;;;;;5.07;2.93;;;14.80;98.00;;;;;;4994154;28;20461;-68
2023/07/07 02:48:22;;;;;;;4.17;2.70;;;14.60;98.00;;;;;;4994093;28;20459;-68
2023/07/07 02:50:56;;;;;;;5.70;2.97;;;14.60;98.00;;;;;;4992973;28;20483;-68
2023/07/07 02:53:27;;;;;;;5.03;2.90;;;14.50;98.00;;;;;;4994109;28;20555;-67
2023/07/07 02:55:54;;;;;;;8.40;3.50;;;14.40;98.00;;;;;;4993039;28;20471;-68
2023/07/07 02:58:22;;;;;;;8.03;3.17;;;14.30;98.00;;;;;;4994079;28;21154;-68
2023/07/07 03:00:50;;;;;;;4.63;2.80;;;14.20;98.00;;;;;;4993674;28;20515;-68
2023/07/07 03:03:18;;;;;;;3.40;2.50;;;14.20;98.00;;;;;;4993777;28;20456;-68
2023/07/07 03:05:46;;;;;;;6.67;2.63;;;14.30;98.00;;;;;;4993828;28;20461;-68
2023/07/07 03:08:14;;;;;;;4.97;2.97;;;14.30;98.00;;;;;;4993496;28;20468;-67
2023/07/07 03:10:42;;;;;;;5.50;3.13;;;14.40;98.00;;;;;;4993324;28;20535;-68
2023/07/07 03:13:11;;;;;;;5.43;2.90;;;14.50;98.00;;;;;;4992097;28;20452;-68
2023/07/07 03:15:40;;;;;;;5.27;3.00;;;14.20;98.00;;;;;;4993673;28;20546;-68
2023/07/07 03:18:08;;;;;;;3.27;2.60;;;14.10;98.00;;;;;;4993425;28;20459;-67
2023/07/07 03:20:35;;;;;;;5.50;3.20;;;14.10;98.00;;;;;;4993264;28;21185;-67
2023/07/07 03:23:04;;;;;;;4.13;2.33;;;14.10;98.00;;;;;;4993380;28;20468;-68
2023/07/07 03:25:31;;;;;;;4.33;2.80;;;14.10;98.00;;;;;;4993292;28;20468;-68
2023/07/07 03:28:00;;;;;;;5.97;3.20;;;14.20;98.00;;;;;;4993469;28;20836;-68
2023/07/07 03:30:28;;;;;;;5.60;2.97;;;14.30;98.00;;;;;;4993214;28;20464;-67
2023/07/07 03:32:55;;;;;;;5.80;3.10;;;14.30;98.00;;;;;;4993409;28;20456;-67
2023/07/07 03:35:23;;;;;;;4.77;2.93;;;14.20;98.00;;;;;;4993100;28;20470;-67
2023/07/07 03:37:50;;;;;;;6.47;3.07;;;14.30;98.00;;;;;;4992095;28;20465;-67
2023/07/07 03:40:17;;;;;;;5.87;3.03;;;14.40;98.00;;;;;;4993099;28;20487;-67
2023/07/07 03:42:44;;;;;;;5.20;2.90;;;14.20;98.00;;;;;;4993176;28;20480;-67
2023/07/07 03:45:13;;;;;;;4.70;3.03;;;14.20;98.00;;;;;;4993128;28;20965;-67
2023/07/07 03:47:40;;;;;;;5.37;3.40;;;14.30;98.00;;;;;;4993234;28;20806;-68
2023/07/07 03:50:09;;;;;;;5.80;3.07;;;14.10;98.00;;;;;;4993126;28;20453;-67
2023/07/07 03:52:36;;;;;;;4.20;2.80;;;14.10;98.00;;;;;;4992616;28;20461;-67
2023/07/07 03:55:04;;;;;;;5.10;2.77;;;14.20;98.00;;;;;;4993038;28;20464;-67
2023/07/07 03:57:31;;;;;;;3.87;2.80;;;14.40;98.00;;;;;;4992899;28;20511;-67
2023/07/07 03:59:58;;;;;;;5.60;3.30;;;14.40;98.00;;;;;;4992934;28;20531;-68
2023/07/07 04:02:28;;;;;;;4.10;2.80;;;14.30;98.00;;;;;;4992465;28;20480;-68
2023/07/07 04:04:55;;;;;;;5.90;3.20;;;14.30;98.00;;;;;;4992842;28;20961;-68
2023/07/07 04:07:22;;;;;;;5.37;3.10;;;14.30;98.00;;;;;;4992413;28;20986;-67
2023/07/07 04:09:49;;;;;;;4.10;2.77;;;14.30;98.00;;;;;;4992381;28;20467;-67
2023/07/07 04:12:17;;;;;;;5.73;3.07;;;14.20;98.00;;;;;;4992575;28;20456;-68
2023/07/07 04:14:44;;;;;;;4.50;3.07;;;14.30;98.00;;;;;;4992599;28;20460;-68
2023/07/07 04:17:11;;;;;;;4.43;2.83;;;14.40;98.00;;;;;;4992485;28;20456;-67
2023/07/07 04:19:41;;;;;;;5.40;3.27;;;14.20;98.00;;;;;;4992504;28;20457;-68
2023/07/07 04:22:08;;;;;;;5.37;3.20;;;14.20;98.00;;;;;;4991260;28;20499;-68
2023/07/07 04:24:35;;;;;;;6.03;3.13;;;14.20;98.00;;;;;;4992505;28;20527;-67
2023/07/07 04:27:03;;;;;;;6.50;3.60;;;14.20;98.00;;;;;;4991419;28;20456;-67
2023/07/07 04:29:30;;;;;;;8.70;3.03;;;14.10;98.00;;;;;;4992447;28;20463;-68
2023/07/07 04:31:59;;;;;;;4.47;2.87;;;14.30;98.00;;;;;;4992580;28;20512;-67
2023/07/07 04:34:27;;;;;;;5.00;2.90;;;14.50;98.00;;;;;;4992550;28;20453;-67
2023/07/07 04:36:56;;;;;;;6.47;3.53;;;14.50;98.00;;;;;;4992499;28;20452;-68
2023/07/07 04:39:23;;;;;;;5.57;3.50;;;14.40;98.00;;;;;;4992575;28;20479;-67
2023/07/07 04:41:51;;;;;;;6.13;3.30;;;14.40;98.00;;;;;;4991510;28;20488;-67
2023/07/07 04:44:18;;;;;;;4.87;2.97;;;14.30;98.00;;;;;;4992571;28;20985;-68
2023/07/07 04:46:46;;;;;;;8.60;3.53;;;14.40;98.00;;;;;;4992137;28;20460;-67
2023/07/07 04:49:15;;;;;;;7.83;3.20;;;14.50;98.00;;;;;;4992665;28;20535;-67
2023/07/07 04:51:43;;;;;;;7.03;3.43;;;14.70;98.00;;;;;;4992165;28;20958;-68
2023/07/07 04:54:13;;;;;;;4.00;2.83;;;14.70;98.00;;;;;;4992298;28;20461;-68
2023/07/07 04:56:41;;;;;;;5.57;3.50;;;14.60;98.00;;;;;;4991927;28;20947;-67
2023/07/07 04:59:08;;;;;;;4.50;2.80;;;14.70;98.00;;;;;;4992177;28;20456;-67
2023/07/07 05:01:37;;;;;;;6.27;3.27;;;14.80;98.00;;;;;;4992043;28;20881;-67
2023/07/07 05:04:08;;;;;;;5.70;3.10;;;15.00;98.00;;;;;;4994459;28;20462;-68
2023/07/07 05:06:37;;;;;;;6.00;3.60;;;15.00;98.00;;;;;;4995730;28;20460;-67
2023/07/07 05:09:05;;;;;;;7.53;3.70;;;15.20;98.00;;;;;;4995845;28;20515;-68
2023/07/07 05:11:35;;;;;;;7.53;3.63;;;15.40;98.00;;;;;;4995611;28;20476;-67
2023/07/07 05:14:03;;;;;;;5.43;3.40;;;15.50;98.00;;;;;;4995777;28;20460;-67
2023/07/07 05:16:34;;;;;;;6.23;3.60;;;15.70;98.00;;;;;;4995740;28;20464;-67
2023/07/07 05:19:01;;;;;;;8.40;3.97;;;15.90;98.00;;;;;;4995812;28;21051;-68
2023/07/07 05:21:29;;;;;;;6.43;3.40;;;15.90;98.00;;;;;;4995628;28;21041;-67
2023/07/07 05:23:57;;;;;;;5.93;3.70;;;15.90;98.00;;;;;;4995746;28;20464;-67
2023/07/07 05:26:27;;;;;;;7.57;4.00;;;16.00;98.00;;;;;;4995567;28;20459;-68
2023/07/07 05:29:03;;;;;;;6.67;3.70;;;15.90;98.00;;;;;;4996061;28;20828;-67
2023/07/07 05:31:30;;;;;;;6.07;3.20;;;16.00;98.00;;;;;;4994672;28;20483;-67
2023/07/07 05:33:58;;;;;;;6.30;3.63;;;16.00;98.00;;;;;;4995904;28;20563;-68
2023/07/07 05:36:25;;;;;;;7.73;3.70;;;16.10;98.00;;;;;;4995619;28;20894;-68
2023/07/07 05:38:52;;;;;;;6.27;3.50;;;16.20;98.00;;;;;;4995817;28;20476;-68
2023/07/07 05:41:19;;;;;;;6.40;3.23;;;16.30;98.00;;;;;;4995207;28;20491;-68
2023/07/07 05:43:46;;;;;;;4.90;3.47;;;16.40;98.00;;;;;;4994373;28;20472;-68
2023/07/07 05:46:17;;;;;;;8.10;3.33;;;16.60;98.00;;;;;;4993973;28;20464;-68
2023/07/07 05:48:45;;;;;;;6.53;3.70;;;16.70;98.00;;;;;;4995178;28;20460;-67
2023/07/07 05:51:13;;;;;;;7.30;4.00;;;16.90;98.00;;;;;;4994913;28;20547;-67
2023/07/07 05:53:43;;;;;;;5.03;3.30;;;17.00;98.00;;;;;;4995293;28;20959;-63
2023/07/07 05:56:13;;;;;;;6.00;3.77;;;17.20;98.00;;;;;;4994895;28;20809;-62
2023/07/07 05:58:41;;;;;;;8.90;4.53;;;17.20;98.00;;;;;;4995195;28;20463;-63
2023/07/07 06:01:10;;;;;;;7.10;3.80;;;17.20;98.00;;;;;;4994735;28;20467;-63
2023/07/07 06:03:40;;;;;;;8.10;4.10;;;17.20;98.00;;;;;;4994856;28;20463;-63
2023/07/07 06:06:07;;;;;;;6.13;3.40;;;17.40;98.00;;;;;;4994846;28;20489;-63
2023/07/07 06:08:35;;;;;;;5.73;3.20;;;17.30;98.00;;;;;;4994863;28;20449;-63
2023/07/07 06:11:02;;;;;;;7.17;3.30;;;17.40;98.00;;;;;;4993388;28;20514;-63
2023/07/07 06:13:29;;;;;;;6.37;3.63;;;17.60;98.00;;;;;;4994716;28;20460;-64
2023/07/07 06:15:57;;;;;;;7.90;4.17;;;17.70;98.00;;;;;;4993436;28;20845;-63
2023/07/07 06:18:24;;;;;;;6.07;3.00;;;17.80;98.00;;;;;;4994685;28;20452;-63
2023/07/07 06:20:54;;;;;;;6.40;3.77;;;18.00;98.00;;;;;;4994611;28;20459;-64
2023/07/07 06:23:22;;;;;;;7.33;3.30;;;18.10;98.00;;;;;;4994627;28;20488;-64
2023/07/07 06:25:49;;;;;;;6.13;3.37;;;18.10;98.00;;;;;;4994492;28;20511;-63
2023/07/07 06:28:17;;;;;;;5.80;3.60;;;18.10;98.00;;;;;;4994581;28;20460;-63
2023/07/07 06:30:44;;;;;;;5.83;3.60;;;18.20;98.00;;;;;;4994473;28;20495;-64
2023/07/07 06:33:15;;;;;;;4.40;3.40;;;18.30;98.00;;;;;;4994797;28;20472;-64
2023/07/07 06:35:43;;;;;;;7.47;3.80;;;18.40;98.00;;;;;;4994496;28;20460;-64
2023/07/07 06:38:12;;;;;;;8.40;3.60;;;18.60;98.00;;;;;;4994590;28;20461;-63
2023/07/07 06:40:39;;;;;;;6.27;3.67;;;18.70;98.00;;;;;;4994173;28;20464;-64
2023/07/07 06:43:06;;;;;;;6.77;4.03;;;18.70;98.00;;;;;;4994163;28;20484;-64
2023/07/07 06:45:36;;;;;;;8.10;3.97;;;18.80;98.00;;;;;;4994070;28;20460;-64
2023/07/07 06:48:04;;;;;;;6.77;3.90;;;19.00;98.00;;;;;;4994392;28;20463;-65
2023/07/07 06:50:38;;;;;;;5.50;3.53;;;19.20;98.00;;;;;;4993818;28;20452;-64
2023/07/07 06:53:05;;;;;;;5.63;3.50;;;19.20;98.00;;;;;;4994098;28;20464;-65
2023/07/07 06:55:34;;;;;;;7.37;3.60;;;19.20;98.00;;;;;;4993654;28;20947;-65
2023/07/07 06:58:01;;;;;;;5.20;3.30;;;19.30;98.00;;;;;;4993922;28;20485;-64
2023/07/07 07:00:28;;;;;;;7.27;3.43;;;19.40;98.00;;;;;;4993632;28;20958;-64
2023/07/07 07:02:55;;;;;;;5.40;3.57;;;19.50;98.00;;;;;;4993801;28;20496;-65
2023/07/07 07:05:22;;;;;;;7.40;3.47;;;19.60;98.00;;;;;;4992540;28;20978;-64
2023/07/07 07:07:50;;;;;;;5.77;3.60;;;19.70;98.00;;;;;;4993766;28;20553;-65
2023/07/07 07:10:17;;;;;;;6.37;3.43;;;19.80;98.00;;;;;;4993702;28;21010;-64
2023/07/07 07:12:45;;;;;;;6.30;3.23;;;19.90;98.00;;;;;;4993697;28;20460;-64
2023/07/07 07:15:12;;;;;;;8.43;3.50;;;20.10;98.00;;;;;;4993581;28;20456;-64
2023/07/07 07:17:39;;;;;;;8.93;3.90;;;20.20;98.00;;;;;;4993715;28;21032;-64
2023/07/07 07:20:09;;;;;;;5.57;3.37;;;20.20;98.00;;;;;;4993494;28;20456;-64
2023/07/07 07:22:36;;;;;;;6.73;3.30;;;20.40;98.00;;;;;;4992852;28;20507;-64
2023/07/07 07:25:12;;;;;;;5.57;3.43;;;20.60;98.00;;;;;;4993331;28;20527;-65
2023/07/07 07:27:39;;;;;;;6.37;3.73;;;20.70;98.00;;;;;;4993252;28;20463;-65
2023/07/07 07:30:11;;;;;;;4.73;3.30;;;20.70;98.00;;;;;;4993543;28;20460;-64
2023/07/07 07:32:39;;;;;;;7.07;3.73;;;20.90;98.00;;;;;;4993514;28;20938;-64
2023/07/07 07:35:07;;;;;;;7.13;3.70;;;21.00;98.00;;;;;;4992962;28;20503;-65
2023/07/07 07:37:34;;;;;;;6.90;3.83;;;21.10;98.00;;;;;;4992176;28;20502;-65
2023/07/07 07:40:01;;;;;;;10.23;4.23;;;21.30;98.00;;;;;;4991630;28;20460;-64
2023/07/07 07:42:32;;;;;;;6.37;3.47;;;21.40;98.00;;;;;;4992917;28;21121;-64
2023/07/07 07:44:59;;;;;;;7.23;3.90;;;21.60;98.00;;;;;;4993092;28;20460;-64
2023/07/07 07:47:27;;;;;;;7.03;3.80;;;21.70;97.60;;;;;;4992989;28;20463;-64
2023/07/07 07:49:54;;;;;;;5.40;3.40;;;21.90;97.80;;;;;;4991958;28;20460;-66
2023/07/07 07:52:22;;;;;;;4.07;2.90;;;22.10;97.80;;;;;;4992810;28;20460;-64
2023/07/07 07:54:50;;;;;;;6.53;3.53;;;22.40;98.00;;;;;;4992722;28;20546;-64
2023/07/07 07:57:17;;;;;;;6.33;3.70;;;22.60;97.00;;;;;;4992535;28;20511;-64
2023/07/07 07:59:44;;;;;;;7.13;3.73;;;22.80;95.40;;;;;;4992653;28;20467;-64
2023/07/07 08:02:12;;;;;;;6.60;3.73;;;22.80;94.60;;;;;;4992346;28;20484;-64
2023/07/07 08:04:40;;;;;;;8.20;3.73;;;23.00;94.70;;;;;;4992684;28;20543;-64
2023/07/07 08:07:07;;;;;;;7.43;3.77;;;23.10;94.50;;;;;;4992645;28;20460;-65
2023/07/07 08:09:35;;;;;;;8.70;4.07;;;23.20;94.50;;;;;;4992811;28;20468;-65
2023/07/07 08:12:03;;;;;;;6.10;3.33;;;23.40;94.90;;;;;;4991315;28;20468;-65
2023/07/07 08:14:32;;;;;;;7.83;3.87;;;23.60;94.10;;;;;;4992471;28;20463;-65
2023/07/07 08:17:02;;;;;;;6.50;3.60;;;23.80;93.60;;;;;;4992616;28;20463;-65
2023/07/07 08:19:34;;;;;;;7.10;3.53;;;23.90;93.20;;;;;;4992951;28;20468;-65
2023/07/07 08:22:05;;;;;;;7.50;3.90;;;24.10;92.80;;;;;;4992673;28;20480;-65
2023/07/07 08:24:36;;;;;;;7.77;3.90;;;24.40;92.50;;;;;;4992925;28;20527;-64
2023/07/07 08:27:04;;;;;;;6.00;3.60;;;24.60;92.30;;;;;;4992907;28;20452;-65
2023/07/07 08:29:31;;;;;;;8.40;3.50;;;24.90;90.80;;;;;;4992619;28;20949;-65
2023/07/07 08:31:58;;;;;;;9.67;4.57;;;25.20;87.90;;;;;;4992566;28;20464;-65
2023/07/07 08:34:25;;;;;;;8.10;4.50;;;25.30;88.20;;;;;;4992478;28;20448;-65
2023/07/07 08:36:59;;;;;;;7.03;3.30;;;25.50;86.20;;;;;;4992261;28;20460;-66
2023/07/07 08:39:29;;;;;;;8.63;4.10;;;25.70;85.40;;;;;;4995599;28;20830;-65
2023/07/07 08:42:00;;;;;;;7.60;4.00;;;25.80;86.20;;;;;;4996220;28;20467;-64
2023/07/07 08:44:32;;;;;;;6.67;3.60;;;26.10;85.20;;;;;;4996278;28;20579;-65
2023/07/07 08:47:11;;;;;;;6.00;3.27;;;26.30;83.30;;;;;;4996284;28;20463;-65
2023/07/07 08:49:46;;;;;;;6.60;3.70;;;26.60;83.90;;;;;;4996438;28;20460;-65
2023/07/07 08:52:21;;;;;;;6.20;3.77;;;26.60;83.80;;;;;;4996301;28;20473;-65
2023/07/07 08:54:58;;;;;;;6.93;3.73;;;26.70;83.40;;;;;;4996029;28;20463;-65
2023/07/07 08:57:31;;;;;;;7.37;3.70;;;26.70;79.70;;;;;;4996178;28;20471;-65
2023/07/07 09:00:05;;;;;;;7.97;3.90;;;26.80;80.20;;;;;;4996028;28;20467;-64
2023/07/07 11:24:16;;;;;;;7.60;4.70;;;33.10;62.70;;;;;;4973875;28;20520;-85
2023/07/07 12:04:31;;;;;;;8.70;4.57;;;35.30;56.20;;;;;;4932079;29;20503;-87
2023/07/07 12:13:38;;;;;;;8.57;4.43;;;35.70;55.70;;;;;;5070748;23;20499;-71
2023/07/07 12:16:15;;;;;;;8.37;4.93;;;35.90;53.50;;;;;;4972077;28;20553;-70
2023/07/07 12:18:47;;;;;;;10.73;5.50;;;35.90;54.50;;;;;;4985902;28;20461;-71
2023/07/07 12:21:17;;;;;;;9.73;4.70;;;35.90;55.10;;;;;;4984120;28;20468;-71
2023/07/07 12:23:54;;;;;;;7.57;4.63;;;35.90;54.10;;;;;;4972227;28;20517;-71
2023/07/07 12:26:26;;;;;;;10.83;4.90;;;35.60;52.70;;;;;;4972694;28;20970;-71
2023/07/07 12:28:56;;;;;;;8.43;4.80;;;35.60;55.70;;;;;;4972273;28;20472;-71
2023/07/07 12:31:25;;;;;;;10.30;4.87;;;35.70;54.60;;;;;;4972424;28;20512;-70
2023/07/07 12:33:52;;;;;;;9.60;5.13;;;35.80;53.20;;;;;;4972592;28;20528;-70
2023/07/07 12:36:21;;;;;;;7.73;4.63;;;35.90;53.60;;;;;;4971120;28;20840;-70
2023/07/07 12:39:03;;;;;;;8.80;4.60;;;36.20;54.40;;;;;;4981020;28;20540;-70
2023/07/07 12:41:30;;;;;;;9.37;5.30;;;36.50;53.50;;;;;;4991934;28;20519;-70
2023/07/07 12:44:00;;;;;;;10.03;4.53;;;36.50;53.40;;;;;;4991660;28;20492;-69
2023/07/07 12:46:29;;;;;;;8.77;4.30;;;36.50;53.50;;;;;;4996812;28;20464;-70
2023/07/07 12:48:58;;;;;;;10.07;5.00;;;36.60;53.90;;;;;;4987225;28;20469;-73
2023/07/07 12:51:29;;;;;;;8.67;4.80;;;36.80;54.10;;;;;;4972552;28;21187;-75
2023/07/07 12:53:57;;;;;;;8.57;4.50;;;36.80;53.30;;;;;;4971915;28;20540;-76
2023/07/07 12:56:34;;;;;;;9.00;4.77;;;36.90;53.90;;;;;;4972409;28;20465;-77
2023/07/07 12:59:01;;;;;;;9.10;4.80;;;37.10;53.10;;;;;;4972683;28;20508;-74
2023/07/07 13:01:38;;;;;;;10.33;5.37;;;37.10;51.60;;;;;;4972406;28;20469;-74
2023/07/07 13:04:17;;;;;;;12.20;4.63;;;37.00;50.90;;;;;;4971887;28;20488;-73
2023/07/07 13:07:06;;;;;;;10.13;5.43;;;37.10;51.00;;;;;;4986589;28;20812;-76
2023/07/07 13:09:49;;;;;;;8.67;4.80;;;37.00;51.20;;;;;;4968026;28;20465;-76
2023/07/07 13:12:49;;;;;;;9.63;5.00;;;36.80;51.90;;;;;;4972056;28;20480;-75
2023/07/07 13:15:22;;;;;;;8.10;4.93;;;36.80;52.60;;;;;;4950222;29;20463;-74
2023/07/07 13:17:51;;;;;;;10.80;4.90;;;37.00;52.90;;;;;;4949341;29;20473;-74
2023/07/07 13:20:21;;;;;;;9.87;4.97;;;37.20;52.50;;;;;;4960904;28;20449;-75
2023/07/07 13:22:51;;;;;;;8.37;4.73;;;37.50;52.60;;;;;;4972362;28;21264;-75
2023/07/07 13:25:24;;;;;;;12.50;4.90;;;37.80;52.40;;;;;;4974473;28;20461;-77
2023/07/07 13:27:55;;;;;;;8.27;5.00;;;37.90;51.90;;;;;;4975615;28;20457;-76
2023/07/07 13:30:27;;;;;;;11.10;5.10;;;37.90;52.10;;;;;;4975602;28;20472;-75
2023/07/07 13:32:55;;;;;;;9.27;4.73;;;37.70;51.60;;;;;;4975556;28;20940;-75
2023/07/07 13:35:24;;;;;;;10.97;5.10;;;37.60;51.50;;;;;;4975430;28;20461;-77
2023/07/07 13:37:52;;;;;;;11.23;4.60;;;37.80;51.80;;;;;;4975283;28;20469;-74
2023/07/07 13:40:20;;;;;;;7.57;4.60;;;38.00;51.40;;;;;;4975407;28;20544;-74
2023/07/07 13:42:51;;;;;;;10.70;5.30;;;38.20;51.70;;;;;;4975205;28;20468;-74
2023/07/07 13:45:21;;;;;;;8.43;5.23;;;38.20;50.90;;;;;;4975163;28;20457;-74
2023/07/07 13:47:52;;;;;;;8.27;4.70;;;38.30;51.40;;;;;;4975299;28;20955;-75
2023/07/07 13:50:22;;;;;;;9.70;4.70;;;38.50;51.50;;;;;;4975501;28;20785;-74
2023/07/07 13:52:55;;;;;;;7.77;4.30;;;38.30;49.30;;;;;;4975602;28;20457;-75
2023/07/07 13:55:27;;;;;;;11.57;5.17;;;38.20;48.70;;;;;;4990115;28;20480;-77
2023/07/07 13:57:54;;;;;;;6.50;3.93;;;38.50;48.80;;;;;;4975507;28;20461;-75
2023/07/07 14:00:29;;;;;;;7.27;4.63;;;38.40;47.80;;;;;;4975201;28;20920;-75
2023/07/07 14:02:57;;;;;;;9.43;4.80;;;38.50;47.60;;;;;;4975331;28;20982;-76
2023/07/07 14:05:25;;;;;;;15.20;5.33;;;38.40;49.90;;;;;;4975505;28;20739;-75
2023/07/07 14:07:52;;;;;;;10.03;5.23;;;38.10;49.30;;;;;;4975121;28;20963;-74
2023/07/07 14:10:29;;;;;;;9.60;4.60;;;38.20;50.30;;;;;;4974845;28;20462;-75
2023/07/07 14:12:57;;;;;;;8.33;4.60;;;38.60;48.60;;;;;;4974540;28;20469;-74
2023/07/07 14:15:32;;;;;;;7.20;4.03;;;38.80;46.80;;;;;;4974689;28;21037;-74
2023/07/07 14:18:02;;;;;;;10.37;4.60;;;38.70;47.70;;;;;;4989212;28;20464;-74
2023/07/07 14:20:39;;;;;;;12.37;5.27;;;38.70;49.20;;;;;;4975330;28;20473;-75
2023/07/07 14:23:09;;;;;;;9.33;4.80;;;38.60;49.60;;;;;;4974658;28;20504;-75
2023/07/07 14:25:42;;;;;;;8.20;4.33;;;38.60;48.60;;;;;;4989157;28;20457;-75
2023/07/07 14:28:14;;;;;;;12.20;5.27;;;38.20;47.80;;;;;;4974857;28;20457;-75
2023/07/07 14:30:48;;;;;;;7.27;4.47;;;38.20;47.30;;;;;;4989567;28;20465;-74
2023/07/07 14:33:19;;;;;;;9.27;4.50;;;38.30;47.00;;;;;;4974747;28;20461;-74
2023/07/07 14:35:46;;;;;;;8.80;4.90;;;38.40;47.10;;;;;;4972181;28;20458;-75
2023/07/07 14:38:26;;;;;;;6.80;4.20;;;38.50;47.00;;;;;;4989400;28;20975;-74
2023/07/07 14:40:55;;;;;;;7.50;4.70;;;38.30;47.00;;;;;;4974400;28;20461;-74
2023/07/07 14:43:25;;;;;;;7.07;4.30;;;38.10;47.60;;;;;;4974331;28;20485;-75
2023/07/07 14:45:54;;;;;;;8.27;4.60;;;38.10;47.60;;;;;;4974450;28;20469;-76
2023/07/07 14:48:23;;;;;;;6.77;4.03;;;37.90;47.10;;;;;;4974462;28;20457;-75
2023/07/07 14:50:51;;;;;;;8.50;4.57;;;37.90;47.80;;;;;;4974505;28;20484;-75
2023/07/07 14:53:22;;;;;;;7.87;4.30;;;38.10;48.50;;;;;;4974002;28;20465;-74
2023/07/07 14:55:50;;;;;;;8.90;4.53;;;38.30;47.30;;;;;;4973988;28;20959;-75
2023/07/07 14:58:22;;;;;;;10.20;4.93;;;38.50;47.10;;;;;;4988178;28;20958;-74
2023/07/07 15:00:52;;;;;;;6.87;4.40;;;38.50;47.80;;;;;;4974562;28;20465;-75
2023/07/07 15:03:35;;;;;;;6.87;4.13;;;38.30;47.50;;;;;;4973986;28;20893;-68
2023/07/07 15:06:16;;;;;;;10.07;4.93;;;38.40;47.80;;;;;;4973764;28;20660;-75
2023/07/07 15:08:48;;;;;;;7.37;4.47;;;38.40;48.10;;;;;;4973857;28;20504;-71
2023/07/07 15:11:15;;;;;;;6.30;3.87;;;38.40;47.60;;;;;;4973457;28;20461;-72
2023/07/07 15:13:43;;;;;;;7.77;4.80;;;38.10;47.90;;;;;;4973050;28;20524;-71
2023/07/07 15:16:23;;;;;;;8.47;4.43;;;38.10;48.20;;;;;;4973425;28;20449;-74
2023/07/07 15:18:50;;;;;;;6.90;4.07;;;38.10;47.80;;;;;;4973650;28;20461;-74
2023/07/07 15:21:22;;;;;;;8.13;4.87;;;38.10;47.70;;;;;;4973534;28;20885;-74
2023/07/07 15:23:49;;;;;;;8.60;4.27;;;38.10;48.30;;;;;;4973277;28;21050;-74
2023/07/07 15:26:26;;;;;;;6.73;4.37;;;38.10;47.70;;;;;;4972985;28;20458;-74
2023/07/07 15:28:56;;;;;;;8.13;4.30;;;38.00;47.40;;;;;;4973487;28;20469;-74
2023/07/07 15:31:24;;;;;;;9.57;4.20;;;37.90;47.60;;;;;;4973088;28;20492;-74
2023/07/07 15:33:51;;;;;;;7.33;4.30;;;37.90;47.80;;;;;;4973491;28;20959;-74
2023/07/07 15:36:20;;;;;;;9.00;4.60;;;37.70;48.20;;;;;;4972821;28;20455;-74
2023/07/07 15:38:54;;;;;;;8.87;4.63;;;37.80;48.60;;;;;;4973188;28;20465;-74
2023/07/07 15:41:23;;;;;;;7.77;4.20;;;37.70;48.20;;;;;;4972866;28;20994;-74
2023/07/07 15:43:50;;;;;;;6.93;3.97;;;37.60;49.50;;;;;;4973147;28;20516;-74
2023/07/07 15:46:29;;;;;;;6.87;4.33;;;37.70;48.60;;;;;;4955909;28;20465;-74
2023/07/07 15:48:59;;;;;;;7.93;4.43;;;37.40;48.50;;;;;;4973222;28;20827;-75
2023/07/07 15:51:29;;;;;;;8.20;4.30;;;37.30;49.60;;;;;;4972686;28;20473;-75
2023/07/07 15:53:57;;;;;;;8.97;4.40;;;36.90;48.70;;;;;;4973077;28;20874;-74
2023/07/07 15:56:28;;;;;;;7.70;4.20;;;37.00;49.40;;;;;;4972773;28;20498;-74
2023/07/07 15:58:55;;;;;;;9.47;4.60;;;37.10;50.70;;;;;;4972887;28;20844;-73
2023/07/07 16:01:24;;;;;;;6.00;4.07;;;37.10;49.90;;;;;;4972551;28;20567;-73
2023/07/07 16:03:51;;;;;;;11.20;5.30;;;37.10;50.50;;;;;;4972556;28;20492;-73